Time;durP1;ratioP1;P1;durP2;ratioP2;P2;SDS_P1;SDS_P2;PMS_P1;PMS_P2;Temp;Humidity;BMP_temperature;BMP_pressure;BME280_temperature;BME280_humidity;BME280_pressure;Samples;Min_cycle;Max_cycle;Signal;HPM_P1;HPM_P2
2022/11/02 00:01:07;;;;;;;7.70;3.13;;;9.70;1.00;;;;;;5062384;28;20509;-75
2022/11/02 00:03:33;;;;;;;8.13;3.30;;;9.60;1.00;;;;;;5071223;28;20442;-75
2022/11/02 00:05:58;;;;;;;6.23;3.10;;;9.60;1.00;;;;;;5065609;28;20467;-76
2022/11/02 00:08:24;;;;;;;7.00;3.27;;;9.60;1.00;;;;;;5065891;28;20578;-74
2022/11/02 00:10:49;;;;;;;10.07;3.70;;;9.60;1.00;;;;;;5066511;28;20177;-74
2022/11/02 00:13:15;;;;;;;5.47;3.47;;;9.60;1.00;;;;;;5067398;28;20280;-75
2022/11/02 00:15:40;;;;;;;4.47;3.33;;;9.60;1.00;;;;;;5063757;28;20227;-74
2022/11/02 00:18:10;;;;;;;6.20;3.70;;;9.50;1.00;;;;;;5066472;28;20177;-74
2022/11/02 00:20:37;;;;;;;9.13;3.13;;;9.50;1.00;;;;;;5066278;28;20172;-76
2022/11/02 00:23:06;;;;;;;8.87;3.23;;;9.50;1.00;;;;;;5067363;28;22534;-75
2022/11/02 00:25:32;;;;;;;8.80;3.70;;;9.50;1.00;;;;;;5066571;28;20410;-74
2022/11/02 00:27:58;;;;;;;7.10;3.67;;;9.50;1.00;;;;;;5067881;28;20924;-75
2022/11/02 00:30:23;;;;;;;13.83;3.67;;;9.40;1.00;;;;;;5064886;28;20410;-74
2022/11/02 00:32:50;;;;;;;7.77;3.87;;;9.40;1.00;;;;;;5070442;28;20622;-74
2022/11/02 00:35:15;;;;;;;7.03;3.53;;;9.40;1.00;;;;;;5063159;28;20181;-76
2022/11/02 00:37:41;;;;;;;7.53;3.50;;;9.40;1.00;;;;;;5060974;28;21038;-74
2022/11/02 00:40:07;;;;;;;6.60;3.53;;;9.40;1.00;;;;;;5056425;28;20177;-75
2022/11/02 00:42:32;;;;;;;11.63;3.60;;;9.30;1.00;;;;;;5084537;28;20642;-77
2022/11/02 00:44:58;;;;;;;9.53;3.43;;;9.30;1.50;;;;;;5072370;28;20410;-75
2022/11/02 00:47:23;;;;;;;5.10;3.10;;;9.30;3.10;;;;;;5064762;28;20173;-75
2022/11/02 00:49:49;;;;;;;6.07;3.47;;;9.40;7.00;;;;;;5068156;28;20651;-76
2022/11/02 00:52:14;;;;;;;10.23;3.30;;;9.40;8.10;;;;;;5063096;28;20207;-74
2022/11/02 00:54:40;;;;;;;9.50;3.17;;;9.50;5.30;;;;;;5066797;28;20185;-75
2022/11/02 00:57:05;;;;;;;4.20;2.83;;;9.50;4.40;;;;;;5064645;28;20728;-75
2022/11/02 00:59:31;;;;;;;6.70;3.30;;;9.50;3.60;;;;;;5070003;28;20669;-75
2022/11/02 01:01:56;;;;;;;5.67;3.10;;;9.50;3.20;;;;;;5063660;28;20176;-74
2022/11/02 01:04:22;;;;;;;7.03;3.10;;;9.50;2.90;;;;;;5064514;28;20211;-75
2022/11/02 01:06:48;;;;;;;8.57;3.50;;;9.50;2.40;;;;;;5065933;28;20204;-73
2022/11/02 01:09:14;;;;;;;7.23;3.00;;;9.50;3.50;;;;;;5069351;28;20195;-75
2022/11/02 01:11:40;;;;;;;6.87;3.20;;;9.50;2.60;;;;;;5070278;28;20180;-75
2022/11/02 01:14:06;;;;;;;10.03;3.50;;;9.50;2.90;;;;;;5067125;28;20539;-74
2022/11/02 01:16:32;;;;;;;5.67;3.57;;;9.50;6.90;;;;;;5067100;28;20512;-75
2022/11/02 01:18:57;;;;;;;6.23;3.20;;;9.50;6.40;;;;;;5065471;28;20449;-75
2022/11/02 01:21:24;;;;;;;8.27;2.90;;;9.60;11.30;;;;;;5068013;28;20665;-75
2022/11/02 01:23:49;;;;;;;7.57;2.87;;;9.70;13.90;;;;;;5067759;28;20208;-74
2022/11/02 01:26:15;;;;;;;9.47;3.90;;;9.80;10.60;;;;;;5069353;28;20419;-75
2022/11/02 01:28:41;;;;;;;9.03;3.93;;;9.80;8.00;;;;;;5065966;28;20197;-75
2022/11/02 01:31:08;;;;;;;8.00;3.33;;;9.80;6.30;;;;;;5067909;28;20192;-76
2022/11/02 01:33:34;;;;;;;9.67;3.87;;;9.80;4.80;;;;;;5060910;28;20817;-74
2022/11/02 01:36:02;;;;;;;5.87;3.23;;;9.80;1.90;;;;;;5056927;28;20487;-75
2022/11/02 01:38:30;;;;;;;7.00;3.80;;;9.80;3.20;;;;;;5065700;28;20256;-74
2022/11/02 01:40:55;;;;;;;6.50;3.30;;;9.80;1.10;;;;;;5069391;28;20479;-75
2022/11/02 01:43:25;;;;;;;8.60;3.00;;;9.80;1.10;;;;;;5081083;28;20437;-73
2022/11/02 01:46:00;;;;;;;6.13;3.00;;;9.80;1.00;;;;;;5084276;28;20181;-75
2022/11/02 01:48:56;;;;;;;8.83;3.00;;;9.80;1.00;;;;;;5067498;28;20819;-74
2022/11/02 01:51:34;;;;;;;8.23;3.37;;;9.80;1.00;;;;;;5057642;28;20462;-74
2022/11/02 01:54:07;;;;;;;4.80;3.17;;;9.90;1.00;;;;;;5061182;28;20794;-75
2022/11/02 01:56:34;;;;;;;4.07;2.63;;;9.90;1.00;;;;;;5064647;28;20989;-73
2022/11/02 01:59:05;;;;;;;6.23;3.43;;;9.90;1.00;;;;;;5060584;28;20433;-75
2022/11/02 02:01:31;;;;;;;5.50;3.00;;;10.20;1.00;;;;;;5066661;28;20434;-73
2022/11/02 02:03:56;;;;;;;8.93;3.00;;;10.00;1.00;;;;;;5068643;28;20437;-75
2022/11/02 02:06:25;;;;;;;8.50;3.27;;;10.10;1.00;;;;;;5066239;28;20242;-73
2022/11/02 02:08:51;;;;;;;12.93;3.70;;;10.10;1.00;;;;;;5060388;28;20273;-75
2022/11/02 02:11:32;;;;;;;5.40;3.20;;;10.10;1.00;;;;;;5066646;28;20461;-74
2022/11/02 02:14:02;;;;;;;7.83;3.10;;;10.20;1.00;;;;;;5069012;28;20434;-74
2022/11/02 02:16:42;;;;;;;3.97;3.00;;;10.20;1.00;;;;;;5059318;28;20911;-76
2022/11/02 02:19:48;;;;;;;6.07;3.00;;;10.20;1.00;;;;;;5063364;28;20978;-74
2022/11/02 02:22:54;;;;;;;8.63;2.90;;;10.30;1.00;;;;;;5047010;28;20446;-76
2022/11/02 02:25:41;;;;;;;6.53;2.53;;;10.50;1.00;;;;;;5066859;28;20504;-75
2022/11/02 02:28:29;;;;;;;4.70;3.17;;;10.50;1.00;;;;;;5066834;28;20430;-75
2022/11/02 02:31:00;;;;;;;4.97;2.50;;;10.40;1.00;;;;;;5068360;28;20444;-75
2022/11/02 02:33:34;;;;;;;5.10;2.70;;;10.40;1.00;;;;;;5072813;28;20434;-74
2022/11/02 02:36:09;;;;;;;7.10;2.87;;;10.50;1.00;;;;;;5066073;28;20430;-74
2022/11/02 02:38:44;;;;;;;4.17;3.27;;;10.40;1.00;;;;;;5063886;28;20439;-75
2022/11/02 02:41:38;;;;;;;3.67;2.47;;;10.40;1.00;;;;;;5072155;28;20542;-72
2022/11/02 02:44:09;;;;;;;5.10;3.00;;;10.40;1.00;;;;;;5057455;28;20975;-72
2022/11/02 02:46:59;;;;;;;5.73;3.07;;;10.50;1.00;;;;;;5070136;28;20498;-72
2022/11/02 02:49:30;;;;;;;9.37;3.07;;;10.40;1.00;;;;;;5059372;28;20453;-74
2022/11/02 02:51:57;;;;;;;16.90;3.70;;;10.40;1.00;;;;;;5070480;28;20444;-75
2022/11/02 02:54:29;;;;;;;8.20;2.90;;;10.40;1.00;;;;;;5063530;28;20414;-74
2022/11/02 02:57:00;;;;;;;7.70;3.13;;;10.40;1.00;;;;;;5071455;28;20458;-74
2022/11/02 02:59:30;;;;;;;5.50;2.83;;;10.40;1.00;;;;;;5068096;28;20801;-75
2022/11/02 03:01:57;;;;;;;5.57;3.10;;;10.40;1.00;;;;;;5071217;28;20407;-74
2022/11/02 03:04:22;;;;;;;7.63;2.80;;;10.40;1.00;;;;;;5066144;28;20514;-74
2022/11/02 03:06:53;;;;;;;6.97;3.30;;;10.30;1.00;;;;;;5068601;28;20889;-74
2022/11/02 03:09:19;;;;;;;7.90;3.10;;;10.30;1.00;;;;;;5063519;28;20195;-75
2022/11/02 03:12:13;;;;;;;5.17;2.77;;;10.30;1.10;;;;;;5069551;28;20443;-74
2022/11/02 03:15:02;;;;;;;7.37;2.87;;;10.20;1.00;;;;;;5071383;28;20441;-74
2022/11/02 03:17:46;;;;;;;9.50;3.47;;;10.10;1.00;;;;;;5062204;28;20554;-74
2022/11/02 03:20:25;;;;;;;6.03;3.00;;;10.00;1.00;;;;;;5058717;28;20435;-74
2022/11/02 03:22:56;;;;;;;4.87;2.70;;;10.00;2.20;;;;;;5065063;28;20451;-74
2022/11/02 03:25:50;;;;;;;6.07;2.70;;;10.00;2.30;;;;;;5065356;28;20424;-75
2022/11/02 03:28:28;;;;;;;10.70;3.37;;;9.90;2.20;;;;;;5069092;28;20418;-73
2022/11/02 03:31:09;;;;;;;5.73;2.73;;;9.90;2.60;;;;;;5060614;28;20423;-72
2022/11/02 03:33:41;;;;;;;5.53;3.10;;;9.90;1.00;;;;;;5059448;28;20498;-77
2022/11/02 03:36:11;;;;;;;6.60;3.57;;;10.00;1.00;;;;;;5063586;28;20469;-74
2022/11/02 03:38:48;;;;;;;4.83;2.90;;;10.00;1.00;;;;;;5060570;28;20471;-74
2022/11/02 03:41:15;;;;;;;7.57;2.97;;;10.10;1.00;;;;;;5069589;28;20461;-75
2022/11/02 03:43:42;;;;;;;6.50;2.80;;;10.10;1.00;;;;;;5068560;28;20452;-75
2022/11/02 03:46:10;;;;;;;4.93;2.97;;;10.20;1.00;;;;;;5069914;28;20813;-75
2022/11/02 03:48:41;;;;;;;4.27;2.70;;;10.20;1.00;;;;;;5070159;28;20399;-72
2022/11/02 03:51:12;;;;;;;7.30;2.90;;;10.20;1.00;;;;;;5070343;28;20513;-73
2022/11/02 03:53:50;;;;;;;3.30;2.80;;;10.20;1.00;;;;;;5070063;28;20419;-74
2022/11/02 03:56:24;;;;;;;5.87;2.93;;;10.20;1.00;;;;;;5072100;28;20450;-76
2022/11/02 03:58:50;;;;;;;8.00;3.17;;;10.20;1.00;;;;;;5067164;28;20489;-74
2022/11/02 04:01:17;;;;;;;9.53;3.47;;;10.30;1.00;;;;;;5065533;28;20407;-74
2022/11/02 04:03:45;;;;;;;6.47;3.50;;;10.30;1.00;;;;;;5070839;28;20203;-74
2022/11/02 04:06:11;;;;;;;8.50;3.60;;;10.30;1.00;;;;;;5061210;28;20979;-76
2022/11/02 04:08:41;;;;;;;7.57;2.77;;;10.30;1.00;;;;;;5063444;28;20565;-72
2022/11/02 04:16:35;;;;;;;5.77;2.60;;;10.30;1.00;;;;;;5067999;28;20512;-75
2022/11/02 04:25:14;;;;;;;4.93;2.87;;;10.40;1.00;;;;;;5067483;28;20199;-73
2022/11/02 04:27:15;;;;;;;5.63;2.80;;;10.50;1.00;;;;;;5067857;28;20990;-74
2022/11/02 04:29:41;;;;;;;5.43;2.77;;;10.60;1.00;;;;;;5070451;28;20407;-74
2022/11/02 04:32:06;;;;;;;7.33;3.23;;;10.70;1.00;;;;;;5060146;28;20200;-75
2022/11/02 04:34:32;;;;;;;8.93;3.23;;;10.70;1.00;;;;;;5066498;28;20268;-73
2022/11/02 04:36:57;;;;;;;6.70;2.97;;;10.80;1.00;;;;;;5067228;28;20360;-76
2022/11/02 04:39:23;;;;;;;9.03;2.93;;;10.80;1.00;;;;;;5062380;28;20550;-73
2022/11/02 04:41:49;;;;;;;7.27;2.90;;;10.90;1.00;;;;;;5070339;28;20212;-74
2022/11/02 04:44:14;;;;;;;6.43;2.83;;;10.90;1.00;;;;;;5071229;28;20176;-74
2022/11/02 04:46:42;;;;;;;6.70;3.00;;;11.00;1.00;;;;;;5067254;28;20426;-75
2022/11/02 04:49:08;;;;;;;5.77;2.60;;;11.00;1.00;;;;;;5062297;28;20176;-74
2022/11/02 04:51:34;;;;;;;8.77;2.80;;;11.10;1.00;;;;;;5065936;28;20797;-74
2022/11/02 04:54:00;;;;;;;10.27;2.90;;;11.10;1.00;;;;;;5069003;28;20455;-75
2022/11/02 04:56:27;;;;;;;4.80;2.80;;;11.20;1.00;;;;;;5065393;28;20944;-75
2022/11/02 04:58:55;;;;;;;7.27;2.43;;;11.20;1.00;;;;;;5067643;28;20438;-75
2022/11/02 05:01:23;;;;;;;5.57;2.90;;;11.20;1.00;;;;;;5069012;28;20414;-75
2022/11/02 05:03:49;;;;;;;5.30;2.33;;;11.10;1.00;;;;;;5068145;28;20549;-73
2022/11/02 05:06:16;;;;;;;6.23;2.63;;;11.10;1.00;;;;;;5064580;28;20492;-74
2022/11/02 05:08:42;;;;;;;5.73;2.90;;;11.10;1.00;;;;;;5065973;28;20524;-75
2022/11/02 05:11:09;;;;;;;10.33;3.10;;;11.10;1.00;;;;;;5070026;28;20418;-74
2022/11/02 05:13:35;;;;;;;9.97;2.63;;;11.10;1.00;;;;;;5077691;28;20217;-76
2022/11/02 05:16:01;;;;;;;7.47;3.10;;;11.10;1.00;;;;;;5064932;28;20439;-77
2022/11/02 05:18:28;;;;;;;4.80;2.60;;;11.60;1.00;;;;;;5063040;28;20488;-74
2022/11/02 05:20:56;;;;;;;8.97;3.20;;;11.20;1.00;;;;;;5066283;28;20554;-75
2022/11/02 05:23:22;;;;;;;7.43;3.20;;;11.20;1.00;;;;;;5064074;28;20519;-73
2022/11/02 05:25:56;;;;;;;9.47;2.93;;;11.30;1.00;;;;;;5064865;28;20467;-75
2022/11/02 05:28:21;;;;;;;7.97;3.30;;;11.30;1.00;;;;;;5069376;28;20778;-76
2022/11/02 05:30:47;;;;;;;8.83;3.00;;;11.30;1.00;;;;;;5066459;28;20438;-73
2022/11/02 05:33:12;;;;;;;9.63;3.43;;;11.30;1.30;;;;;;5059746;28;20196;-75
2022/11/02 05:35:38;;;;;;;10.70;3.93;;;11.30;2.20;;;;;;5066197;28;20623;-75
2022/11/02 05:38:03;;;;;;;10.23;3.10;;;11.30;1.90;;;;;;5063775;28;20220;-73
2022/11/02 05:40:29;;;;;;;5.70;3.17;;;12.60;4.40;;;;;;5062765;28;21874;-75
2022/11/02 05:42:59;;;;;;;8.53;3.63;;;11.40;4.20;;;;;;5062972;28;20326;-75
2022/11/02 05:45:24;;;;;;;8.63;2.90;;;11.40;3.80;;;;;;5065910;28;20183;-74
2022/11/02 05:47:50;;;;;;;12.47;3.50;;;11.50;2.30;;;;;;5068990;28;20410;-75
2022/11/02 05:50:15;;;;;;;13.17;3.57;;;11.50;2.40;;;;;;5065800;28;20188;-75
2022/11/02 05:52:41;;;;;;;10.40;3.47;;;11.50;3.00;;;;;;5068806;28;20216;-75
2022/11/02 05:55:07;;;;;;;8.17;2.80;;;11.50;3.50;;;;;;5064915;28;20665;-75
2022/11/02 05:57:32;;;;;;;5.53;2.70;;;11.50;3.10;;;;;;5059774;28;20283;-75
2022/11/02 05:59:58;;;;;;;9.07;3.00;;;11.50;2.80;;;;;;5062014;28;20180;-75
2022/11/02 06:02:23;;;;;;;10.30;3.13;;;11.40;4.20;;;;;;5068392;28;20196;-75
2022/11/02 06:04:49;;;;;;;12.33;2.90;;;11.40;5.10;;;;;;5061873;28;20181;-75
2022/11/02 06:07:14;;;;;;;10.53;2.97;;;11.40;6.90;;;;;;5065231;28;20559;-75
2022/11/02 06:09:40;;;;;;;9.07;3.37;;;11.30;8.60;;;;;;5058058;28;20560;-74
2022/11/02 06:12:06;;;;;;;7.43;3.20;;;11.20;12.20;;;;;;5058526;28;20498;-75
2022/11/02 06:14:31;;;;;;;10.73;3.50;;;11.10;15.00;;;;;;5060306;28;20241;-75
2022/11/02 06:16:57;;;;;;;7.43;2.87;;;11.00;17.30;;;;;;5074739;28;20196;-74
2022/11/02 06:19:22;;;;;;;7.43;3.10;;;11.00;18.00;;;;;;5070179;28;20175;-75
2022/11/02 06:21:48;;;;;;;14.97;3.17;;;11.50;20.30;;;;;;5065847;28;20204;-75
2022/11/02 06:24:14;;;;;;;17.73;3.33;;;10.90;20.70;;;;;;5065330;28;20215;-76
2022/11/02 06:26:39;;;;;;;9.43;3.70;;;10.90;22.10;;;;;;5061261;28;20172;-78
2022/11/02 06:29:05;;;;;;;9.20;3.00;;;10.90;23.40;;;;;;5068237;28;20172;-75
2022/11/02 06:31:31;;;;;;;10.20;3.80;;;10.90;23.20;;;;;;5066465;28;20187;-74
2022/11/02 06:33:56;;;;;;;12.50;4.00;;;11.00;24.90;;;;;;5056952;28;20598;-75
2022/11/02 06:36:22;;;;;;;7.77;3.30;;;11.00;23.40;;;;;;5063225;28;20232;-74
2022/11/02 06:38:47;;;;;;;15.10;4.67;;;11.10;22.40;;;;;;5055995;28;20205;-76
2022/11/02 06:41:13;;;;;;;15.83;3.83;;;11.10;20.80;;;;;;5072911;28;20519;-73
2022/11/02 06:43:38;;;;;;;10.13;4.40;;;11.20;18.20;;;;;;5069227;28;20655;-75
2022/11/02 06:46:05;;;;;;;8.67;3.37;;;11.20;19.00;;;;;;5062552;28;20203;-75
2022/11/02 06:48:30;;;;;;;16.63;7.23;;;11.30;17.20;;;;;;5059256;28;20670;-74
2022/11/02 06:50:56;;;;;;;12.97;4.90;;;11.20;17.40;;;;;;5057458;28;20485;-75
2022/11/02 06:53:22;;;;;;;6.80;3.03;;;11.30;17.60;;;;;;5064567;28;20207;-75
2022/11/02 06:55:58;;;;;;;10.50;3.67;;;11.30;17.60;;;;;;5054853;28;20420;-76
2022/11/02 06:58:24;;;;;;;19.10;7.03;;;11.30;16.60;;;;;;5056842;28;20245;-75
2022/11/02 07:00:55;;;;;;;13.07;4.33;;;11.40;15.30;;;;;;5068836;28;20442;-75
2022/11/02 07:03:21;;;;;;;17.27;4.30;;;11.50;14.70;;;;;;5065119;28;20477;-76
2022/11/02 07:05:51;;;;;;;11.97;4.00;;;11.50;13.90;;;;;;5059846;28;20427;-74
2022/11/02 07:08:17;;;;;;;10.70;3.40;;;11.60;12.00;;;;;;5059013;28;20177;-75
2022/11/02 07:10:43;;;;;;;11.60;4.07;;;11.60;13.90;;;;;;5059426;28;20423;-74
2022/11/02 07:13:08;;;;;;;7.60;4.03;;;11.60;11.80;;;;;;5072550;28;20960;-74
2022/11/02 07:15:34;;;;;;;7.47;3.27;;;12.60;11.30;;;;;;5069070;28;20169;-77
2022/11/02 07:17:59;;;;;;;10.57;3.20;;;11.80;10.80;;;;;;5060911;28;20267;-74
2022/11/02 07:20:25;;;;;;;9.30;3.30;;;11.80;8.60;;;;;;5067616;28;20174;-75
2022/11/02 07:22:51;;;;;;;6.90;2.73;;;11.90;8.60;;;;;;5067144;28;20196;-75
2022/11/02 07:25:17;;;;;;;6.90;3.20;;;11.90;8.70;;;;;;5071320;28;20173;-75
2022/11/02 07:27:42;;;;;;;9.63;3.33;;;12.70;7.40;;;;;;5062339;28;20434;-75
2022/11/02 07:30:08;;;;;;;7.97;2.93;;;12.10;5.10;;;;;;5064811;28;20188;-74
2022/11/02 07:32:41;;;;;;;8.40;2.50;;;12.10;5.40;;;;;;5058655;28;20206;-74
2022/11/02 07:35:09;;;;;;;11.00;3.37;;;12.20;3.30;;;;;;5056048;28;20177;-75
2022/11/02 07:37:34;;;;;;;12.47;2.90;;;12.30;1.00;;;;;;5063491;28;20458;-75
2022/11/02 07:40:00;;;;;;;9.63;3.57;;;12.30;1.00;;;;;;5052294;28;20412;-74
2022/11/02 07:42:26;;;;;;;9.70;3.43;;;12.40;1.10;;;;;;5061298;28;20197;-75
2022/11/02 07:44:51;;;;;;;13.10;4.37;;;12.50;1.00;;;;;;5055038;28;20181;-78
2022/11/02 07:47:17;;;;;;;15.53;3.40;;;12.60;1.00;;;;;;5070248;28;20188;-75
2022/11/02 07:49:42;;;;;;;14.00;2.90;;;12.60;1.00;;;;;;5063483;28;20218;-77
2022/11/02 07:52:08;;;;;;;10.17;3.10;;;12.70;1.00;;;;;;5068458;28;20231;-76
2022/11/02 07:54:33;;;;;;;8.53;2.93;;;12.70;1.00;;;;;;5065884;28;20183;-75
2022/11/02 07:56:59;;;;;;;10.30;3.80;;;12.70;1.00;;;;;;5073931;28;20598;-75
2022/11/02 07:59:24;;;;;;;12.17;2.97;;;12.80;1.00;;;;;;5059746;28;20172;-77
2022/11/02 08:01:50;;;;;;;9.40;2.60;;;12.90;1.00;;;;;;5060046;28;20215;-76
2022/11/02 08:04:15;;;;;;;9.00;3.00;;;13.00;1.00;;;;;;5062189;28;20279;-75
2022/11/02 08:06:41;;;;;;;6.20;2.50;;;13.10;1.00;;;;;;5065236;28;20613;-75
2022/11/02 08:09:06;;;;;;;7.77;2.70;;;13.10;1.00;;;;;;5064764;28;20177;-74
2022/11/02 08:11:32;;;;;;;6.80;2.80;;;13.30;1.00;;;;;;5057778;28;20187;-77
2022/11/02 08:13:58;;;;;;;7.73;2.67;;;13.30;1.00;;;;;;5065237;28;20192;-75
2022/11/02 08:16:23;;;;;;;8.20;2.60;;;13.30;1.00;;;;;;5072017;28;20565;-75
2022/11/02 08:18:49;;;;;;;6.80;2.60;;;13.40;1.00;;;;;;5072488;28;20184;-75
2022/11/02 08:21:14;;;;;;;10.27;2.57;;;13.50;1.00;;;;;;5067556;28;20191;-75
2022/11/02 08:23:40;;;;;;;7.87;2.57;;;13.60;1.00;;;;;;5057288;28;20197;-74
2022/11/02 08:26:05;;;;;;;6.40;2.50;;;14.40;1.00;;;;;;5065911;28;20182;-74
2022/11/02 08:28:34;;;;;;;10.17;2.93;;;13.80;1.00;;;;;;5062335;28;20248;-75
2022/11/02 08:31:00;;;;;;;6.80;2.10;;;13.80;1.00;;;;;;5059049;28;20181;-74
2022/11/02 08:33:26;;;;;;;4.87;2.33;;;13.70;1.00;;;;;;5056622;28;20769;-74
2022/11/02 08:35:52;;;;;;;12.53;2.80;;;13.70;1.00;;;;;;5064860;28;20263;-76
2022/11/02 08:38:21;;;;;;;6.13;2.10;;;13.80;1.00;;;;;;5064676;28;20565;-74
2022/11/02 08:40:47;;;;;;;8.70;2.83;;;13.90;1.00;;;;;;5060726;28;20658;-76
2022/11/02 08:43:13;;;;;;;9.33;2.50;;;14.10;1.00;;;;;;5077520;28;20423;-76
2022/11/02 08:45:41;;;;;;;14.27;2.53;;;14.20;1.00;;;;;;5054813;28;20600;-75
2022/11/02 08:48:07;;;;;;;9.13;2.63;;;14.30;1.00;;;;;;5060778;28;20443;-76
2022/11/02 08:50:33;;;;;;;11.13;2.77;;;14.50;1.00;;;;;;5058402;28;20447;-74
2022/11/02 08:52:59;;;;;;;6.90;2.33;;;14.50;1.00;;;;;;5061098;28;20591;-76
2022/11/02 08:55:25;;;;;;;11.63;2.17;;;14.70;1.00;;;;;;5066037;28;20433;-75
2022/11/02 08:57:55;;;;;;;6.50;2.50;;;14.70;1.00;;;;;;5059659;28;20208;-74
2022/11/02 09:00:23;;;;;;;5.00;2.30;;;14.90;1.00;;;;;;5069232;28;20694;-74
2022/11/02 09:02:59;;;;;;;7.33;2.47;;;15.30;1.00;;;;;;5056958;28;20509;-75
2022/11/02 09:05:25;;;;;;;13.17;2.80;;;15.70;1.00;;;;;;5058166;28;20419;-75
2022/11/02 09:07:58;;;;;;;6.60;2.33;;;15.90;1.00;;;;;;5066510;28;20426;-75
2022/11/02 09:10:25;;;;;;;7.83;2.20;;;16.30;1.00;;;;;;5070669;28;20208;-75
2022/11/02 09:12:50;;;;;;;9.10;2.60;;;16.20;1.00;;;;;;5059162;28;20815;-75
2022/11/02 09:15:16;;;;;;;7.47;2.17;;;16.40;1.00;;;;;;5059998;28;20416;-73
2022/11/02 09:17:41;;;;;;;11.17;2.67;;;17.00;1.00;;;;;;5054968;28;20201;-73
2022/11/02 09:20:07;;;;;;;7.90;2.97;;;17.60;1.00;;;;;;5066620;28;20177;-73
2022/11/02 09:22:33;;;;;;;6.53;2.60;;;18.30;1.00;;;;;;5058628;28;20189;-75
2022/11/02 09:24:58;;;;;;;7.70;2.70;;;19.60;1.00;;;;;;5062403;28;20172;-74
2022/11/02 09:27:24;;;;;;;11.80;3.37;;;21.20;1.00;;;;;;5073711;28;20173;-75
2022/11/02 09:29:49;;;;;;;8.37;2.60;;;22.60;1.00;;;;;;5060249;28;20239;-75
2022/11/02 09:32:15;;;;;;;9.80;2.73;;;23.40;1.00;;;;;;5053682;28;20199;-77
2022/11/02 09:34:40;;;;;;;7.73;2.80;;;23.50;1.00;;;;;;5051300;28;20176;-75
2022/11/02 09:37:06;;;;;;;11.13;2.73;;;23.80;1.00;;;;;;5061961;28;20212;-75
2022/11/02 09:39:31;;;;;;;7.97;2.83;;;23.20;1.00;;;;;;5063879;28;20524;-76
2022/11/02 09:42:35;;;;;;;8.73;2.90;;;23.70;1.00;;;;;;5062903;28;20593;-75
2022/11/02 09:45:06;;;;;;;6.67;2.30;;;24.70;1.00;;;;;;5064257;28;20658;-76
2022/11/02 09:47:43;;;;;;;9.63;2.50;;;24.50;1.00;;;;;;5064412;28;20441;-78
2022/11/02 09:50:16;;;;;;;9.23;2.60;;;23.70;1.00;;;;;;5057546;28;20440;-77
2022/11/02 09:52:45;;;;;;;7.60;2.23;;;24.50;1.00;;;;;;5063866;28;20204;-77
2022/11/02 09:55:17;;;;;;;7.10;2.57;;;26.00;1.00;;;;;;5066233;28;20465;-78
2022/11/02 09:57:47;;;;;;;8.03;2.40;;;27.80;1.00;;;;;;5063393;28;20466;-80
2022/11/02 10:00:14;;;;;;;14.13;3.13;;;28.10;1.00;;;;;;5067087;28;20689;-77
2022/11/02 10:02:45;;;;;;;7.97;2.57;;;29.00;1.00;;;;;;5078244;28;20200;-78
2022/11/02 10:05:31;;;;;;;7.80;2.60;;;29.90;1.00;;;;;;5060623;28;20590;-78
2022/11/02 10:08:34;;;;;;;8.25;2.75;;;30.60;1.00;;;;;;5067116;28;20175;-77
2022/11/02 10:11:23;;;;;;;11.95;2.83;;;30.60;1.00;;;;;;5082361;28;20171;-78
2022/11/02 10:13:57;;;;;;;8.60;2.67;;;30.50;1.00;;;;;;5060141;28;20235;-78
2022/11/02 10:16:39;;;;;;;9.23;2.88;;;30.70;1.00;;;;;;5067545;28;20199;-77
2022/11/02 10:19:12;;;;;;;11.48;2.90;;;30.80;1.00;;;;;;5068113;28;20168;-77
2022/11/02 10:21:40;;;;;;;9.18;2.80;;;31.40;1.00;;;;;;5067590;28;20494;-77
2022/11/02 10:24:33;;;;;;;8.38;3.00;;;31.30;1.00;;;;;;5074421;28;20188;-77
2022/11/02 10:27:01;;;;;;;8.48;2.97;;;30.10;1.00;;;;;;5067457;28;20735;-78
2022/11/02 10:29:41;;;;;;;8.77;2.88;;;30.10;1.00;;;;;;5063494;28;20264;-77
2022/11/02 10:32:12;;;;;;;9.27;3.10;;;30.10;1.00;;;;;;5057881;28;20249;-78
2022/11/02 10:34:39;;;;;;;5.15;2.40;;;31.40;1.00;;;;;;5058696;28;20175;-79
2022/11/02 10:37:37;;;;;;;7.63;2.90;;;30.70;1.00;;;;;;5067956;28;20196;-78
2022/11/02 10:40:26;;;;;;;10.13;3.00;;;28.00;1.00;;;;;;5074618;28;20267;-77
2022/11/02 10:43:17;;;;;;;10.23;2.83;;;26.30;1.00;;;;;;5057166;28;20200;-77
2022/11/02 10:46:09;;;;;;;8.50;2.70;;;26.20;1.00;;;;;;5066450;28;20619;-79
2022/11/02 10:48:58;;;;;;;8.90;2.30;;;28.20;1.00;;;;;;5064549;28;20187;-77
2022/11/02 10:51:24;;;;;;;9.40;2.17;;;28.70;1.00;;;;;;5086032;28;20187;-77
2022/11/02 10:53:51;;;;;;;8.30;2.57;;;27.60;1.00;;;;;;5066897;28;20317;-79
2022/11/02 10:56:31;;;;;;;9.27;2.70;;;28.30;1.00;;;;;;5072943;28;20176;-78
2022/11/02 10:59:07;;;;;;;11.60;2.83;;;26.90;1.00;;;;;;5064533;28;20254;-78
2022/11/02 11:01:33;;;;;;;11.57;2.67;;;25.90;1.00;;;;;;5071877;28;20599;-77
2022/11/02 11:04:18;;;;;;;6.53;2.73;;;25.80;1.00;;;;;;5076676;28;20199;-78
2022/11/02 11:06:45;;;;;;;8.83;2.83;;;26.80;1.00;;;;;;5070644;28;20179;-76
2022/11/02 11:09:19;;;;;;;6.27;2.47;;;26.90;1.00;;;;;;5068815;28;20458;-77
2022/11/02 11:11:59;;;;;;;9.07;2.60;;;27.60;1.00;;;;;;5065548;28;20919;-78
2022/11/02 11:14:31;;;;;;;5.77;2.33;;;27.90;1.00;;;;;;5065105;28;20438;-78
2022/11/02 11:17:01;;;;;;;7.40;2.20;;;29.00;1.00;;;;;;5063240;28;20205;-77
2022/11/02 11:19:40;;;;;;;8.53;2.57;;;29.30;1.00;;;;;;5070750;28;20168;-78
2022/11/02 11:22:25;;;;;;;7.57;2.60;;;29.30;1.00;;;;;;5065674;28;20222;-79
2022/11/02 11:24:51;;;;;;;8.10;2.60;;;30.90;1.00;;;;;;5066707;28;20176;-78
2022/11/02 11:27:19;;;;;;;9.82;3.15;;;31.50;1.00;;;;;;5062377;28;20176;-77
2022/11/02 11:29:57;;;;;;;10.68;3.03;;;31.00;1.00;;;;;;5075109;28;20199;-78
2022/11/02 11:32:28;;;;;;;10.35;2.70;;;30.80;1.00;;;;;;5063035;28;20273;-77
2022/11/02 11:35:06;;;;;;;7.30;2.40;;;31.60;1.00;;;;;;5065726;28;20601;-78
2022/11/02 11:37:32;;;;;;;9.98;2.55;;;32.20;1.00;;;;;;5058808;28;20318;-77
2022/11/02 11:40:15;;;;;;;9.43;2.60;;;33.10;1.00;;;;;;5066296;28;20171;-77
2022/11/02 11:42:41;;;;;;;6.28;2.25;;;33.60;1.00;;;;;;5072538;28;20198;-78
2022/11/02 11:45:19;;;;;;;8.70;2.70;;;31.50;1.00;;;;;;5060181;28;20638;-77
2022/11/02 11:47:45;;;;;;;9.65;2.72;;;28.80;1.00;;;;;;5069165;28;20266;-78
2022/11/02 11:50:16;;;;;;;9.15;2.75;;;28.30;1.00;;;;;;5067261;28;20184;-77
2022/11/02 11:52:42;;;;;;;10.23;2.92;;;29.70;1.00;;;;;;5069368;28;20757;-78
2022/11/02 11:55:22;;;;;;;9.10;2.30;;;29.30;1.00;;;;;;5063522;28;20184;-77
2022/11/02 11:58:12;;;;;;;9.50;2.40;;;27.40;1.00;;;;;;5070740;28;20200;-77
2022/11/02 12:00:37;;;;;;;7.17;2.00;;;27.50;1.00;;;;;;5060285;28;20256;-76
2022/11/02 12:03:09;;;;;;;8.70;1.90;;;28.70;1.00;;;;;;5065342;28;20282;-76
2022/11/02 12:05:57;;;;;;;6.53;2.00;;;29.20;1.00;;;;;;5075896;28;20224;-77
2022/11/02 12:08:25;;;;;;;8.82;2.60;;;30.10;1.00;;;;;;5060397;28;20259;-76
2022/11/02 12:11:09;;;;;;;9.30;2.50;;;29.30;1.00;;;;;;5066757;28;20656;-76
2022/11/02 12:13:52;;;;;;;7.00;1.90;;;27.30;1.00;;;;;;5066856;28;20203;-79
2022/11/02 12:16:24;;;;;;;11.53;2.30;;;24.60;1.00;;;;;;5063784;28;20180;-75
2022/11/02 12:19:00;;;;;;;6.33;1.93;;;22.70;1.00;;;;;;5070449;28;20418;-76
2022/11/02 12:21:43;;;;;;;6.50;1.70;;;21.90;1.00;;;;;;5074113;28;20464;-76
2022/11/02 12:24:55;;;;;;;8.80;2.20;;;21.40;1.00;;;;;;5061318;28;20423;-77
2022/11/02 12:27:29;;;;;;;5.50;2.43;;;22.70;1.00;;;;;;5072883;28;20432;-78
2022/11/02 12:30:03;;;;;;;8.37;2.40;;;24.60;1.00;;;;;;5070063;28;20420;-78
2022/11/02 12:33:11;;;;;;;5.50;2.07;;;26.50;1.00;;;;;;5063910;28;20464;-75
2022/11/02 12:35:49;;;;;;;5.60;2.17;;;28.00;1.00;;;;;;5069127;28;20453;-75
2022/11/02 12:38:36;;;;;;;6.73;2.27;;;29.20;1.00;;;;;;5063811;28;20485;-76
2022/11/02 12:41:07;;;;;;;7.13;1.97;;;29.70;1.00;;;;;;5059552;28;20172;-76
2022/11/02 12:43:43;;;;;;;6.60;2.07;;;29.30;1.00;;;;;;5067776;28;20202;-75
2022/11/02 12:46:12;;;;;;;5.23;2.10;;;27.50;1.00;;;;;;5063045;28;20172;-76
2022/11/02 12:48:56;;;;;;;7.40;2.33;;;25.30;1.00;;;;;;5070956;28;20407;-76
2022/11/02 12:51:33;;;;;;;5.63;2.00;;;26.60;1.00;;;;;;5066249;28;20556;-76
2022/11/02 12:54:08;;;;;;;5.43;2.23;;;28.50;1.00;;;;;;5082618;28;20425;-76
2022/11/02 12:56:52;;;;;;;8.47;2.07;;;28.50;1.00;;;;;;5065777;28;20500;-76
2022/11/02 12:59:29;;;;;;;9.03;2.20;;;27.90;1.00;;;;;;5071737;28;20172;-76
2022/11/02 13:02:20;;;;;;;6.03;1.70;;;24.50;1.00;;;;;;5069715;28;20662;-75
2022/11/02 13:04:50;;;;;;;5.40;2.17;;;24.00;1.00;;;;;;5077389;28;20541;-76
2022/11/02 13:07:42;;;;;;;8.90;2.07;;;22.80;1.00;;;;;;5073596;28;20465;-76
2022/11/02 13:10:32;;;;;;;8.20;2.03;;;22.30;1.00;;;;;;5054140;28;20434;-75
2022/11/02 13:13:00;;;;;;;6.07;2.20;;;21.90;1.00;;;;;;5070281;28;20444;-78
2022/11/02 13:15:28;;;;;;;5.63;2.37;;;21.40;1.00;;;;;;5052471;28;20441;-75
2022/11/02 13:17:59;;;;;;;6.10;2.10;;;20.90;1.00;;;;;;5064645;28;20463;-76
2022/11/02 13:20:38;;;;;;;6.67;2.20;;;20.30;1.00;;;;;;5062334;28;20525;-76
2022/11/02 13:23:14;;;;;;;6.07;2.20;;;20.10;1.00;;;;;;5062775;28;20438;-76
2022/11/02 13:25:47;;;;;;;10.47;2.50;;;19.80;1.00;;;;;;5062881;28;20419;-76